This is the latest recevied weather packets stored in our database for station/object OK2JF-6. If no packets are shown the sender has not sent any weather packets the latest 10 day(s).
| Time | Temp. | Humidity | Pressure | Rain* | Wind** | Luminosity | Snow |
|---|---|---|---|---|---|---|---|
| 1777275003 | 15.56° C | 36% | 1094.5 hPa | 0 mm | - | 309 W/m² | - |
| 1777274584 | 15° C | 34% | 1094.7 hPa | 0 mm | - | 296 W/m² | - |
| 1777274283 | 15° C | 34% | 1094.7 hPa | 0 mm | - | 285 W/m² | - |
| 1777274103 | 15.56° C | 33% | 1094.9 hPa | 0 mm | - | 280 W/m² | - |
| 1777273864 | 16.11° C | 33% | 1095 hPa | 0 mm | - | 268 W/m² | - |
| 1777273803 | 16.11° C | 33% | 1094.8 hPa | 0 mm | - | 272 W/m² | - |
| 1777273623 | 16.11° C | 34% | 1094.6 hPa | 0 mm | - | 270 W/m² | - |
| 1777273023 | 14.44° C | 39% | 1094.7 hPa | 0 mm | - | 253 W/m² | - |
| 1777272903 | 13.89° C | 39% | 1094.8 hPa | 0 mm | - | 249 W/m² | - |
| 1777272784 | 13.89° C | 39% | 1094.8 hPa | 0 mm | - | 239 W/m² | - |
| 1777272544 | 13.89° C | 38% | 1094.8 hPa | 0 mm | - | 213 W/m² | - |
| 1777272184 | 12.78° C | 42% | 1094.8 hPa | 0 mm | - | 212 W/m² | - |
| 1777272138 | 12.22° C | 48% | 1094.9 hPa | 0 mm | - | 204 W/m² | - |
| 1777272063 | 12.22° C | 48% | 1094.8 hPa | 0 mm | - | 214 W/m² | - |
| 1777271883 | 11.11° C | 49% | 1094.9 hPa | 0 mm | - | 210 W/m² | - |
| 1777271824 | 11.11° C | 49% | 1094.9 hPa | 0 mm | - | 203 W/m² | - |
| 1777271583 | 10.56° C | 51% | 1095.1 hPa | 0 mm | - | 208 W/m² | - |
| 1777270923 | 8.33° C | 58% | 1094.9 hPa | 0 mm | - | 142 W/m² | - |
| 1777270863 | 8.33° C | 60% | 1094.8 hPa | 0 mm | - | 155 W/m² | - |
| 1777270803 | 8.33° C | 62% | 1094.9 hPa | 0 mm | - | 159 W/m² | - |
| 1777269783 | 5.56° C | 69% | 1094.9 hPa | 0 mm | - | 145 W/m² | - |
| 1777269183 | 4.44° C | 71% | 1094.9 hPa | 0 mm | - | 136 W/m² | - |
| 1777268883 | 4.44° C | 72% | 1094.8 hPa | 0 mm | - | 95 W/m² | - |
| 1777268523 | 4.44° C | 72% | 1094.8 hPa | 0 mm | - | 78 W/m² | - |
| 1777268404 | 3.89° C | 73% | 1094.8 hPa | 0 mm | - | 90 W/m² | - |
* Rain latest hour (hover to see other rain measurements)
** Current wind speed in m/s (hover to see current wind gust speed)